Wamac, Illinois
Current Conditions -  °F | °C
As of 8:15 AM on Tuesday 27 Jan 2015 (Local Time) from KENL Reporting Station
Haze Haze  
Wind Chill: 27°   Ceiling: Unl
Heat Index: 33°   Visibility: 4mi
Dew Point: 30°   Wind: 6mph
Humidity: 90%   Direction: 330°NNW
Pressure: 30.08"   Gusts: NA
Location:  38.5134°N, 89.1673°W
Report Text: KENL 271415Z AUTO 33005KT 4SM BR SCT010 01/M01 A3008 RMK AO2 T00051010
Loading
Personal Weather Stations






























Interactive Weather Map New forecast layout! Learn more

10-Day Weather Forecast

Advertisements
Track Severe Weather on mobile